sensor_id;sensor_type;location;lat;lon;timestamp;pressure;altitude;pressure_sealevel;temperature;humidity
45040;BME280;30778;53.574;7.770;2022-08-16T00:00:36;100546.09;;;17.31;55.74
45040;BME280;30778;53.574;7.770;2022-08-16T00:03:03;100549.00;;;17.39;55.35
45040;BME280;30778;53.574;7.770;2022-08-16T00:05:29;100540.13;;;17.40;55.66
45040;BME280;30778;53.574;7.770;2022-08-16T00:07:55;100543.84;;;17.37;55.49
45040;BME280;30778;53.574;7.770;2022-08-16T00:10:23;100543.28;;;17.45;55.52
45040;BME280;30778;53.574;7.770;2022-08-16T00:12:49;100534.63;;;17.43;55.24
45040;BME280;30778;53.574;7.770;2022-08-16T00:15:29;100535.31;;;17.34;55.12
45040;BME280;30778;53.574;7.770;2022-08-16T00:17:55;100544.41;;;17.30;55.20
45040;BME280;30778;53.574;7.770;2022-08-16T00:20:21;100533.84;;;17.30;55.20
45040;BME280;30778;53.574;7.770;2022-08-16T00:22:48;100531.94;;;17.32;55.14
45040;BME280;30778;53.574;7.770;2022-08-16T00:25:17;100533.56;;;17.21;55.57
45040;BME280;30778;53.574;7.770;2022-08-16T00:27:43;100529.78;;;17.13;55.66
45040;BME280;30778;53.574;7.770;2022-08-16T00:30:11;100534.97;;;17.14;55.32
45040;BME280;30778;53.574;7.770;2022-08-16T00:32:38;100533.09;;;17.03;55.34
45040;BME280;30778;53.574;7.770;2022-08-16T00:35:10;100531.53;;;17.01;55.69
45040;BME280;30778;53.574;7.770;2022-08-16T00:37:36;100532.03;;;17.06;55.69
45040;BME280;30778;53.574;7.770;2022-08-16T00:40:03;100532.47;;;17.00;55.86
45040;BME280;30778;53.574;7.770;2022-08-16T00:42:30;100533.16;;;16.91;55.72
45040;BME280;30778;53.574;7.770;2022-08-16T00:45:02;100530.13;;;16.71;56.11
45040;BME280;30778;53.574;7.770;2022-08-16T00:47:28;100531.97;;;16.58;56.86
45040;BME280;30778;53.574;7.770;2022-08-16T00:49:53;100532.91;;;16.57;56.74
45040;BME280;30778;53.574;7.770;2022-08-16T00:52:19;100534.88;;;16.66;56.79
45040;BME280;30778;53.574;7.770;2022-08-16T00:54:45;100533.81;;;16.69;56.95
45040;BME280;30778;53.574;7.770;2022-08-16T00:57:11;100527.59;;;16.70;56.77
45040;BME280;30778;53.574;7.770;2022-08-16T00:59:38;100524.00;;;16.71;56.73
45040;BME280;30778;53.574;7.770;2022-08-16T01:02:05;100532.69;;;16.60;56.83
45040;BME280;30778;53.574;7.770;2022-08-16T01:04:32;100538.91;;;16.59;57.10
45040;BME280;30778;53.574;7.770;2022-08-16T01:06:59;100540.38;;;16.63;57.18
45040;BME280;30778;53.574;7.770;2022-08-16T01:09:26;100543.78;;;16.52;56.84
45040;BME280;30778;53.574;7.770;2022-08-16T01:11:52;100538.00;;;16.47;57.14
45040;BME280;30778;53.574;7.770;2022-08-16T01:14:30;100543.38;;;16.46;57.41
45040;BME280;30778;53.574;7.770;2022-08-16T01:16:58;100546.50;;;16.51;57.12
45040;BME280;30778;53.574;7.770;2022-08-16T01:19:30;100541.03;;;16.54;57.22
45040;BME280;30778;53.574;7.770;2022-08-16T01:22:02;100545.47;;;16.53;57.39
45040;BME280;30778;53.574;7.770;2022-08-16T01:24:34;100542.13;;;16.38;57.44
45040;BME280;30778;53.574;7.770;2022-08-16T01:27:09;100540.22;;;16.40;57.71
45040;BME280;30778;53.574;7.770;2022-08-16T01:29:41;100542.94;;;16.39;57.32
45040;BME280;30778;53.574;7.770;2022-08-16T01:32:07;100545.69;;;16.37;57.38
45040;BME280;30778;53.574;7.770;2022-08-16T01:34:34;100549.38;;;16.48;57.36
45040;BME280;30778;53.574;7.770;2022-08-16T01:37:06;100555.56;;;16.59;56.96
45040;BME280;30778;53.574;7.770;2022-08-16T01:39:34;100547.06;;;16.56;56.75
45040;BME280;30778;53.574;7.770;2022-08-16T01:42:00;100547.78;;;16.58;56.89
45040;BME280;30778;53.574;7.770;2022-08-16T01:44:27;100552.94;;;16.59;56.93
45040;BME280;30778;53.574;7.770;2022-08-16T01:46:53;100548.06;;;16.66;56.90
45040;BME280;30778;53.574;7.770;2022-08-16T01:49:25;100549.66;;;16.69;56.87
45040;BME280;30778;53.574;7.770;2022-08-16T01:51:55;100557.06;;;16.63;56.57
45040;BME280;30778;53.574;7.770;2022-08-16T01:54:30;100549.78;;;16.67;56.48
45040;BME280;30778;53.574;7.770;2022-08-16T01:56:56;100554.09;;;16.68;56.73
45040;BME280;30778;53.574;7.770;2022-08-16T01:59:22;100548.31;;;16.76;57.00
45040;BME280;30778;53.574;7.770;2022-08-16T02:01:50;100554.09;;;16.68;56.45
45040;BME280;30778;53.574;7.770;2022-08-16T02:04:17;100543.13;;;16.61;56.86
45040;BME280;30778;53.574;7.770;2022-08-16T02:06:43;100545.16;;;16.58;56.80
45040;BME280;30778;53.574;7.770;2022-08-16T02:09:09;100540.22;;;16.53;57.00
45040;BME280;30778;53.574;7.770;2022-08-16T02:11:36;100537.66;;;16.52;57.29
45040;BME280;30778;53.574;7.770;2022-08-16T02:14:02;100548.41;;;16.49;57.33
45040;BME280;30778;53.574;7.770;2022-08-16T02:16:29;100548.22;;;16.52;57.26
45040;BME280;30778;53.574;7.770;2022-08-16T02:18:58;100546.50;;;16.51;57.35
45040;BME280;30778;53.574;7.770;2022-08-16T02:21:24;100557.59;;;16.56;57.58
45040;BME280;30778;53.574;7.770;2022-08-16T02:23:50;100557.47;;;16.57;57.33
45040;BME280;30778;53.574;7.770;2022-08-16T02:26:16;100561.91;;;16.57;57.33
45040;BME280;30778;53.574;7.770;2022-08-16T02:28:42;100552.00;;;16.60;57.05
45040;BME280;30778;53.574;7.770;2022-08-16T02:31:11;100546.72;;;16.60;57.20
45040;BME280;30778;53.574;7.770;2022-08-16T02:33:37;100548.53;;;16.60;56.77
45040;BME280;30778;53.574;7.770;2022-08-16T02:36:04;100540.06;;;16.55;56.98
45040;BME280;30778;53.574;7.770;2022-08-16T02:38:32;100542.44;;;16.47;57.06
45040;BME280;30778;53.574;7.770;2022-08-16T02:41:00;100549.88;;;16.53;57.43
45040;BME280;30778;53.574;7.770;2022-08-16T02:43:28;100543.66;;;16.67;57.22
45040;BME280;30778;53.574;7.770;2022-08-16T02:45:57;100544.47;;;16.80;57.20
45040;BME280;30778;53.574;7.770;2022-08-16T02:48:23;100537.59;;;16.90;56.97
45040;BME280;30778;53.574;7.770;2022-08-16T02:50:49;100541.81;;;16.93;56.52
45040;BME280;30778;53.574;7.770;2022-08-16T02:53:16;100531.47;;;16.90;56.50
45040;BME280;30778;53.574;7.770;2022-08-16T02:55:41;100533.16;;;16.91;56.51
45040;BME280;30778;53.574;7.770;2022-08-16T02:58:08;100544.00;;;16.99;56.67
45040;BME280;30778;53.574;7.770;2022-08-16T03:00:34;100548.13;;;17.03;56.36
45040;BME280;30778;53.574;7.770;2022-08-16T03:03:01;100550.84;;;17.01;56.46
45040;BME280;30778;53.574;7.770;2022-08-16T03:05:26;100552.75;;;16.99;56.53
45040;BME280;30778;53.574;7.770;2022-08-16T03:07:52;100547.81;;;16.95;56.24
45040;BME280;30778;53.574;7.770;2022-08-16T03:10:18;100541.59;;;16.96;56.36
45040;BME280;30778;53.574;7.770;2022-08-16T03:12:46;100533.38;;;16.88;56.34
45040;BME280;30778;53.574;7.770;2022-08-16T03:15:14;100534.25;;;16.75;56.38
45040;BME280;30778;53.574;7.770;2022-08-16T03:17:41;100531.50;;;16.64;56.84
45040;BME280;30778;53.574;7.770;2022-08-16T03:20:10;100539.88;;;16.58;56.98
45040;BME280;30778;53.574;7.770;2022-08-16T03:22:37;100539.41;;;16.64;56.79
45040;BME280;30778;53.574;7.770;2022-08-16T03:25:10;100539.97;;;16.69;56.54
45040;BME280;30778;53.574;7.770;2022-08-16T03:27:37;100544.59;;;16.66;56.75
45040;BME280;30778;53.574;7.770;2022-08-16T03:30:13;100545.16;;;16.58;56.95
45040;BME280;30778;53.574;7.770;2022-08-16T03:32:39;100552.66;;;16.51;56.81
45040;BME280;30778;53.574;7.770;2022-08-16T03:35:06;100540.00;;;16.44;57.03
45040;BME280;30778;53.574;7.770;2022-08-16T03:37:33;100544.97;;;16.35;57.20
45040;BME280;30778;53.574;7.770;2022-08-16T03:40:03;100547.63;;;16.23;57.52
45040;BME280;30778;53.574;7.770;2022-08-16T03:42:30;100553.94;;;16.20;57.94
45040;BME280;30778;53.574;7.770;2022-08-16T03:44:56;100551.50;;;16.17;58.31
45040;BME280;30778;53.574;7.770;2022-08-16T03:47:25;100542.94;;;16.26;57.92
45040;BME280;30778;53.574;7.770;2022-08-16T03:49:52;100544.66;;;16.27;57.75
45040;BME280;30778;53.574;7.770;2022-08-16T03:52:20;100544.34;;;16.32;57.82
45040;BME280;30778;53.574;7.770;2022-08-16T03:54:47;100548.13;;;16.40;57.86
45040;BME280;30778;53.574;7.770;2022-08-16T03:57:13;100544.84;;;16.50;57.60
45040;BME280;30778;53.574;7.770;2022-08-16T03:59:39;100546.00;;;16.46;57.44
45040;BME280;30778;53.574;7.770;2022-08-16T04:02:09;100542.94;;;16.52;57.37
45040;BME280;30778;53.574;7.770;2022-08-16T04:04:37;100537.66;;;16.52;57.39
45040;BME280;30778;53.574;7.770;2022-08-16T04:07:04;100545.06;;;16.47;57.48
45040;BME280;30778;53.574;7.770;2022-08-16T04:09:33;100543.38;;;16.46;57.31
45040;BME280;30778;53.574;7.770;2022-08-16T04:11:59;100548.53;;;16.34;57.81
45040;BME280;30778;53.574;7.770;2022-08-16T04:14:24;100547.63;;;16.35;57.95
45040;BME280;30778;53.574;7.770;2022-08-16T04:16:52;100551.50;;;16.42;57.83
45040;BME280;30778;53.574;7.770;2022-08-16T04:19:43;100561.31;;;16.53;57.51
45040;BME280;30778;53.574;7.770;2022-08-16T04:22:10;100560.25;;;16.56;57.78
45040;BME280;30778;53.574;7.770;2022-08-16T04:24:45;100559.38;;;16.55;57.66
45040;BME280;30778;53.574;7.770;2022-08-16T04:27:11;100550.94;;;16.63;57.49
45040;BME280;30778;53.574;7.770;2022-08-16T04:29:36;100552.19;;;16.70;57.15
45040;BME280;30778;53.574;7.770;2022-08-16T04:32:02;100556.53;;;16.71;57.19
45040;BME280;30778;53.574;7.770;2022-08-16T04:34:33;100558.63;;;16.79;57.23
45040;BME280;30778;53.574;7.770;2022-08-16T04:37:00;100554.09;;;16.81;57.09
45040;BME280;30778;53.574;7.770;2022-08-16T04:39:27;100556.41;;;16.86;57.12
45040;BME280;30778;53.574;7.770;2022-08-16T04:41:53;100554.50;;;16.88;56.99
45040;BME280;30778;53.574;7.770;2022-08-16T04:44:18;100549.66;;;16.81;56.84
45040;BME280;30778;53.574;7.770;2022-08-16T04:46:44;100558.72;;;16.77;56.73
45040;BME280;30778;53.574;7.770;2022-08-16T04:49:10;100553.59;;;16.76;57.01
45040;BME280;30778;53.574;7.770;2022-08-16T04:51:37;100559.03;;;16.86;57.14
45040;BME280;30778;53.574;7.770;2022-08-16T04:54:06;100561.59;;;16.87;56.72
45040;BME280;30778;53.574;7.770;2022-08-16T04:56:33;100566.22;;;16.83;56.62
45040;BME280;30778;53.574;7.770;2022-08-16T04:58:58;100573.22;;;16.85;56.62
45040;BME280;30778;53.574;7.770;2022-08-16T05:01:25;100574.88;;;16.86;56.56
45040;BME280;30778;53.574;7.770;2022-08-16T05:03:52;100571.28;;;16.87;56.55
45040;BME280;30778;53.574;7.770;2022-08-16T05:06:18;100579.00;;;16.77;56.63
45040;BME280;30778;53.574;7.770;2022-08-16T05:08:44;100577.63;;;16.71;56.95
45040;BME280;30778;53.574;7.770;2022-08-16T05:11:15;100567.63;;;16.76;56.65
45040;BME280;30778;53.574;7.770;2022-08-16T05:13:44;100571.84;;;16.79;56.87
45040;BME280;30778;53.574;7.770;2022-08-16T05:16:18;100572.56;;;16.68;57.24
45040;BME280;30778;53.574;7.770;2022-08-16T05:18:45;100577.50;;;16.98;56.67
45040;BME280;30778;53.574;7.770;2022-08-16T05:21:11;100572.53;;;17.18;56.39
45040;BME280;30778;53.574;7.770;2022-08-16T05:23:40;100575.66;;;17.36;55.77
45040;BME280;30778;53.574;7.770;2022-08-16T05:26:06;100580.91;;;17.49;55.59
45040;BME280;30778;53.574;7.770;2022-08-16T05:28:31;100577.75;;;17.68;55.46
45040;BME280;30778;53.574;7.770;2022-08-16T05:30:57;100576.34;;;17.86;54.64
45040;BME280;30778;53.574;7.770;2022-08-16T05:33:27;100575.94;;;18.15;53.92
45040;BME280;30778;53.574;7.770;2022-08-16T05:35:55;100579.59;;;18.81;53.20
45040;BME280;30778;53.574;7.770;2022-08-16T05:38:43;100579.97;;;19.32;51.98
45040;BME280;30778;53.574;7.770;2022-08-16T05:41:12;100575.31;;;19.56;50.32
45040;BME280;30778;53.574;7.770;2022-08-16T05:43:40;100575.41;;;19.87;50.22
45040;BME280;30778;53.574;7.770;2022-08-16T05:46:06;100577.19;;;20.49;48.03
45040;BME280;30778;53.574;7.770;2022-08-16T05:48:32;100579.78;;;20.19;48.24
45040;BME280;30778;53.574;7.770;2022-08-16T05:51:02;100588.03;;;19.74;48.85
45040;BME280;30778;53.574;7.770;2022-08-16T05:53:28;100592.41;;;19.52;50.45
45040;BME280;30778;53.574;7.770;2022-08-16T05:56:13;100593.97;;;19.22;50.79
45040;BME280;30778;53.574;7.770;2022-08-16T05:58:42;100595.19;;;19.18;51.04
45040;BME280;30778;53.574;7.770;2022-08-16T06:01:12;100597.13;;;19.05;51.68
45040;BME280;30778;53.574;7.770;2022-08-16T06:03:41;100595.13;;;18.97;51.95
45040;BME280;30778;53.574;7.770;2022-08-16T06:06:17;100590.28;;;18.80;52.24
45040;BME280;30778;53.574;7.770;2022-08-16T06:08:43;100585.47;;;18.74;52.36
45040;BME280;30778;53.574;7.770;2022-08-16T06:11:09;100595.09;;;18.86;52.33
45040;BME280;30778;53.574;7.770;2022-08-16T06:13:35;100592.09;;;19.02;52.25
45040;BME280;30778;53.574;7.770;2022-08-16T06:16:05;100598.56;;;19.20;51.92
45040;BME280;30778;53.574;7.770;2022-08-16T06:18:31;100605.88;;;19.28;52.20
45040;BME280;30778;53.574;7.770;2022-08-16T06:20:57;100605.25;;;19.36;51.82
45040;BME280;30778;53.574;7.770;2022-08-16T06:23:25;100601.06;;;19.33;51.66
45040;BME280;30778;53.574;7.770;2022-08-16T06:26:00;100605.81;;;18.96;52.11
45040;BME280;30778;53.574;7.770;2022-08-16T06:28:30;100607.47;;;19.19;52.29
45040;BME280;30778;53.574;7.770;2022-08-16T06:30:57;100614.50;;;18.98;52.63
45040;BME280;30778;53.574;7.770;2022-08-16T06:33:23;100619.03;;;19.18;52.44
45040;BME280;30778;53.574;7.770;2022-08-16T06:35:51;100619.25;;;19.26;52.62
45040;BME280;30778;53.574;7.770;2022-08-16T06:38:17;100621.03;;;19.37;52.49
45040;BME280;30778;53.574;7.770;2022-08-16T06:40:43;100623.44;;;19.40;51.93
45040;BME280;30778;53.574;7.770;2022-08-16T06:43:08;100623.38;;;19.63;51.82
45040;BME280;30778;53.574;7.770;2022-08-16T06:45:38;100626.66;;;19.55;51.49
45040;BME280;30778;53.574;7.770;2022-08-16T06:48:11;100621.50;;;19.75;51.50
45040;BME280;30778;53.574;7.770;2022-08-16T06:50:37;100625.75;;;19.98;50.50
45040;BME280;30778;53.574;7.770;2022-08-16T06:53:06;100628.19;;;19.90;51.80
45040;BME280;30778;53.574;7.770;2022-08-16T06:55:34;100637.22;;;20.41;50.85
45040;BME280;30778;53.574;7.770;2022-08-16T06:58:00;100637.16;;;20.62;49.00
45040;BME280;30778;53.574;7.770;2022-08-16T07:00:27;100634.06;;;20.57;49.98
45040;BME280;30778;53.574;7.770;2022-08-16T07:03:01;100641.50;;;20.63;49.27
45040;BME280;30778;53.574;7.770;2022-08-16T07:05:28;100640.50;;;20.54;48.70
45040;BME280;30778;53.574;7.770;2022-08-16T07:08:18;100643.56;;;20.80;49.17
45040;BME280;30778;53.574;7.770;2022-08-16T07:10:44;100642.44;;;20.83;48.91
45040;BME280;30778;53.574;7.770;2022-08-16T07:13:12;100641.06;;;20.88;48.57
45040;BME280;30778;53.574;7.770;2022-08-16T07:15:39;100643.63;;;21.00;48.48
45040;BME280;30778;53.574;7.770;2022-08-16T07:18:07;100643.44;;;21.22;48.27
45040;BME280;30778;53.574;7.770;2022-08-16T07:20:33;100641.34;;;21.35;48.08
45040;BME280;30778;53.574;7.770;2022-08-16T07:22:58;100642.91;;;21.38;47.19
45040;BME280;30778;53.574;7.770;2022-08-16T07:25:33;100645.47;;;21.49;47.17
45040;BME280;30778;53.574;7.770;2022-08-16T07:27:59;100644.34;;;21.52;47.53
45040;BME280;30778;53.574;7.770;2022-08-16T07:30:28;100649.09;;;21.58;45.81
45040;BME280;30778;53.574;7.770;2022-08-16T07:32:56;100651.47;;;21.51;46.73
45040;BME280;30778;53.574;7.770;2022-08-16T07:35:22;100655.28;;;21.78;46.14
45040;BME280;30778;53.574;7.770;2022-08-16T07:37:48;100652.72;;;21.86;46.14
45040;BME280;30778;53.574;7.770;2022-08-16T07:40:20;100649.78;;;21.80;45.42
45040;BME280;30778;53.574;7.770;2022-08-16T07:42:46;100655.69;;;21.83;45.08
45040;BME280;30778;53.574;7.770;2022-08-16T07:45:12;100656.25;;;22.16;46.22
45040;BME280;30778;53.574;7.770;2022-08-16T07:47:43;100655.50;;;22.33;45.03
45040;BME280;30778;53.574;7.770;2022-08-16T07:50:11;100653.66;;;22.44;45.25
45040;BME280;30778;53.574;7.770;2022-08-16T07:52:39;100655.75;;;22.40;44.29
45040;BME280;30778;53.574;7.770;2022-08-16T07:55:07;100657.81;;;23.85;42.18
45040;BME280;30778;53.574;7.770;2022-08-16T07:57:33;100655.03;;;26.40;35.53
45040;BME280;30778;53.574;7.770;2022-08-16T07:59:59;100656.50;;;28.07;34.95
45040;BME280;30778;53.574;7.770;2022-08-16T08:02:26;100656.66;;;27.13;35.74
45040;BME280;30778;53.574;7.770;2022-08-16T08:04:55;100655.88;;;26.96;34.09
45040;BME280;30778;53.574;7.770;2022-08-16T08:07:21;100652.25;;;26.00;35.51
45040;BME280;30778;53.574;7.770;2022-08-16T08:09:50;100654.34;;;26.46;35.16
45040;BME280;30778;53.574;7.770;2022-08-16T08:12:16;100661.03;;;28.59;31.75
45040;BME280;30778;53.574;7.770;2022-08-16T08:14:45;100661.41;;;29.80;29.86
45040;BME280;30778;53.574;7.770;2022-08-16T08:17:11;100658.22;;;30.54;27.82
45040;BME280;30778;53.574;7.770;2022-08-16T08:19:39;100656.44;;;32.63;25.34
45040;BME280;30778;53.574;7.770;2022-08-16T08:22:06;100665.88;;;33.44;24.28
45040;BME280;30778;53.574;7.770;2022-08-16T08:24:42;100656.38;;;33.35;23.71
45040;BME280;30778;53.574;7.770;2022-08-16T08:27:08;100658.59;;;34.94;22.56
45040;BME280;30778;53.574;7.770;2022-08-16T08:29:35;100655.28;;;35.76;22.58
45040;BME280;30778;53.574;7.770;2022-08-16T08:32:01;100660.03;;;35.68;20.53
45040;BME280;30778;53.574;7.770;2022-08-16T08:34:27;100653.53;;;34.97;21.27
45040;BME280;30778;53.574;7.770;2022-08-16T08:36:53;100659.28;;;33.33;23.54
45040;BME280;30778;53.574;7.770;2022-08-16T08:39:31;100665.16;;;33.87;22.71
45040;BME280;30778;53.574;7.770;2022-08-16T08:41:56;100653.63;;;33.66;22.50
45040;BME280;30778;53.574;7.770;2022-08-16T08:44:23;100657.19;;;32.97;23.68
45040;BME280;30778;53.574;7.770;2022-08-16T08:46:48;100657.75;;;33.69;23.67
45040;BME280;30778;53.574;7.770;2022-08-16T08:49:14;100660.03;;;35.68;21.33
45040;BME280;30778;53.574;7.770;2022-08-16T08:51:41;100666.88;;;35.59;20.47
45040;BME280;30778;53.574;7.770;2022-08-16T08:54:09;100660.13;;;34.34;21.86
45040;BME280;30778;53.574;7.770;2022-08-16T08:56:36;100662.00;;;33.33;22.47
45040;BME280;30778;53.574;7.770;2022-08-16T08:59:09;100668.56;;;31.47;23.60
45040;BME280;30778;53.574;7.770;2022-08-16T09:01:38;100668.47;;;31.07;25.63
45040;BME280;30778;53.574;7.770;2022-08-16T09:04:06;100669.00;;;31.64;25.00
45040;BME280;30778;53.574;7.770;2022-08-16T09:06:36;100665.81;;;32.60;23.96
45040;BME280;30778;53.574;7.770;2022-08-16T09:09:04;100678.25;;;30.73;26.60
45040;BME280;30778;53.574;7.770;2022-08-16T09:11:31;100671.56;;;30.34;26.79
45040;BME280;30778;53.574;7.770;2022-08-16T09:13:58;100676.00;;;29.92;27.58
45040;BME280;30778;53.574;7.770;2022-08-16T09:16:24;100681.72;;;30.32;26.52
45040;BME280;30778;53.574;7.770;2022-08-16T09:18:50;100680.25;;;30.58;27.21
45040;BME280;30778;53.574;7.770;2022-08-16T09:21:16;100678.47;;;30.72;26.68
45040;BME280;30778;53.574;7.770;2022-08-16T09:23:43;100668.56;;;30.86;27.41
45040;BME280;30778;53.574;7.770;2022-08-16T09:26:11;100674.88;;;30.58;26.39
45040;BME280;30778;53.574;7.770;2022-08-16T09:28:37;100672.59;;;28.07;29.04
45040;BME280;30778;53.574;7.770;2022-08-16T09:31:16;100676.22;;;27.76;28.95
45040;BME280;30778;53.574;7.770;2022-08-16T09:33:42;100673.41;;;27.15;29.69
45040;BME280;30778;53.574;7.770;2022-08-16T09:36:09;100679.97;;;28.66;28.53
45040;BME280;30778;53.574;7.770;2022-08-16T09:38:35;100675.88;;;29.57;26.97
45040;BME280;30778;53.574;7.770;2022-08-16T09:41:05;100685.97;;;28.83;28.11
45040;BME280;30778;53.574;7.770;2022-08-16T09:43:32;100679.25;;;29.08;27.32
45040;BME280;30778;53.574;7.770;2022-08-16T09:45:57;100681.06;;;29.38;26.64
45040;BME280;30778;53.574;7.770;2022-08-16T09:48:23;100680.72;;;29.26;27.28
45040;BME280;30778;53.574;7.770;2022-08-16T09:50:49;100682.78;;;29.09;27.04
45040;BME280;30778;53.574;7.770;2022-08-16T09:53:16;100680.72;;;28.22;28.68
45040;BME280;30778;53.574;7.770;2022-08-16T09:55:45;100684.88;;;27.86;29.42
45040;BME280;30778;53.574;7.770;2022-08-16T09:58:11;100685.28;;;28.21;28.33
45040;BME280;30778;53.574;7.770;2022-08-16T10:00:37;100681.34;;;29.28;27.42
45040;BME280;30778;53.574;7.770;2022-08-16T10:03:03;100689.94;;;28.87;29.30
45040;BME280;30778;53.574;7.770;2022-08-16T10:05:33;100677.41;;;29.45;27.80
45040;BME280;30778;53.574;7.770;2022-08-16T10:08:03;100672.81;;;29.82;26.83
45040;BME280;30778;53.574;7.770;2022-08-16T10:10:29;100666.75;;;28.86;28.16
45040;BME280;30778;53.574;7.770;2022-08-16T10:12:55;100669.09;;;29.83;27.61
45040;BME280;30778;53.574;7.770;2022-08-16T10:15:46;100665.50;;;28.14;28.70
45040;BME280;30778;53.574;7.770;2022-08-16T10:18:13;100671.19;;;29.45;27.49
45040;BME280;30778;53.574;7.770;2022-08-16T10:20:42;100674.75;;;29.67;27.09
45040;BME280;30778;53.574;7.770;2022-08-16T10:23:11;100684.91;;;30.43;26.38
45040;BME280;30778;53.574;7.770;2022-08-16T10:25:40;100678.66;;;30.42;25.39
45040;BME280;30778;53.574;7.770;2022-08-16T10:28:07;100679.41;;;29.80;26.08
45040;BME280;30778;53.574;7.770;2022-08-16T10:30:34;100689.44;;;29.28;26.88
45040;BME280;30778;53.574;7.770;2022-08-16T10:33:00;100687.69;;;29.78;26.75
45040;BME280;30778;53.574;7.770;2022-08-16T10:35:26;100691.94;;;29.87;26.91
45040;BME280;30778;53.574;7.770;2022-08-16T10:37:51;100697.47;;;30.07;25.46
45040;BME280;30778;53.574;7.770;2022-08-16T10:40:19;100695.25;;;29.46;26.31
45040;BME280;30778;53.574;7.770;2022-08-16T10:42:45;100706.50;;;29.56;26.38
45040;BME280;30778;53.574;7.770;2022-08-16T10:45:10;100690.28;;;29.93;25.94
45040;BME280;30778;53.574;7.770;2022-08-16T10:47:36;100704.03;;;29.19;26.71
45040;BME280;30778;53.574;7.770;2022-08-16T10:50:04;100707.56;;;29.55;26.23
45040;BME280;30778;53.574;7.770;2022-08-16T10:52:30;100701.69;;;28.56;27.85
45040;BME280;30778;53.574;7.770;2022-08-16T10:54:58;100705.25;;;28.86;27.89
45040;BME280;30778;53.574;7.770;2022-08-16T10:57:25;100710.44;;;29.54;26.72
45040;BME280;30778;53.574;7.770;2022-08-16T10:59:51;100704.47;;;29.07;26.96
45040;BME280;30778;53.574;7.770;2022-08-16T11:02:18;100711.09;;;29.20;27.30
45040;BME280;30778;53.574;7.770;2022-08-16T11:04:44;100708.00;;;29.08;26.43
45040;BME280;30778;53.574;7.770;2022-08-16T11:07:10;100702.06;;;29.64;25.68
45040;BME280;30778;53.574;7.770;2022-08-16T11:09:37;100711.56;;;30.59;25.51
45040;BME280;30778;53.574;7.770;2022-08-16T11:12:03;100709.50;;;29.83;26.42
45040;BME280;30778;53.574;7.770;2022-08-16T11:14:30;100712.28;;;30.46;25.97
45040;BME280;30778;53.574;7.770;2022-08-16T11:16:56;100710.19;;;30.70;25.57
45040;BME280;30778;53.574;7.770;2022-08-16T11:19:24;100716.94;;;29.60;25.72
45040;BME280;30778;53.574;7.770;2022-08-16T11:21:49;100708.63;;;30.54;24.80
45040;BME280;30778;53.574;7.770;2022-08-16T11:24:15;100725.00;;;29.08;25.83
45040;BME280;30778;53.574;7.770;2022-08-16T11:26:41;100723.59;;;29.64;24.96
45040;BME280;30778;53.574;7.770;2022-08-16T11:29:06;100719.81;;;29.22;26.20
45040;BME280;30778;53.574;7.770;2022-08-16T11:31:34;100716.00;;;29.52;26.12
45040;BME280;30778;53.574;7.770;2022-08-16T11:33:59;100714.31;;;30.37;24.79
45040;BME280;30778;53.574;7.770;2022-08-16T11:36:25;100717.84;;;30.66;23.75
45040;BME280;30778;53.574;7.770;2022-08-16T11:38:51;100724.56;;;30.21;25.43
45040;BME280;30778;53.574;7.770;2022-08-16T11:41:17;100725.25;;;30.57;24.29
45040;BME280;30778;53.574;7.770;2022-08-16T11:43:42;100723.66;;;29.34;26.24
45040;BME280;30778;53.574;7.770;2022-08-16T11:46:12;100731.69;;;29.12;26.94
45040;BME280;30778;53.574;7.770;2022-08-16T11:48:37;100731.69;;;29.12;27.32
45040;BME280;30778;53.574;7.770;2022-08-16T11:51:04;100735.00;;;28.55;27.35
45040;BME280;30778;53.574;7.770;2022-08-16T11:53:31;100731.41;;;28.63;27.45
45040;BME280;30778;53.574;7.770;2022-08-16T11:55:57;100726.47;;;29.26;27.28
45040;BME280;30778;53.574;7.770;2022-08-16T11:58:24;100728.94;;;29.78;25.63
45040;BME280;30778;53.574;7.770;2022-08-16T12:00:51;100740.13;;;28.80;27.07
45040;BME280;30778;53.574;7.770;2022-08-16T12:03:19;100732.22;;;29.59;25.81
45040;BME280;30778;53.574;7.770;2022-08-16T12:05:48;100733.88;;;30.18;25.34
45040;BME280;30778;53.574;7.770;2022-08-16T12:08:14;100737.22;;;29.26;26.00
45040;BME280;30778;53.574;7.770;2022-08-16T12:10:40;100726.94;;;29.66;25.11
45040;BME280;30778;53.574;7.770;2022-08-16T12:13:07;100740.19;;;30.32;24.92
45040;BME280;30778;53.574;7.770;2022-08-16T12:15:34;100735.91;;;29.94;24.52
45040;BME280;30778;53.574;7.770;2022-08-16T12:17:59;100740.75;;;30.84;24.46
45040;BME280;30778;53.574;7.770;2022-08-16T12:20:28;100744.06;;;29.80;24.86
45040;BME280;30778;53.574;7.770;2022-08-16T12:22:54;100745.94;;;29.28;25.59
45040;BME280;30778;53.574;7.770;2022-08-16T12:25:22;100741.91;;;30.11;24.59
45040;BME280;30778;53.574;7.770;2022-08-16T12:27:49;100748.13;;;29.69;26.03
45040;BME280;30778;53.574;7.770;2022-08-16T12:30:19;100750.03;;;29.96;26.08
45040;BME280;30778;53.574;7.770;2022-08-16T12:32:45;100743.69;;;30.89;25.55
45040;BME280;30778;53.574;7.770;2022-08-16T12:35:14;100754.91;;;30.29;24.34
45040;BME280;30778;53.574;7.770;2022-08-16T12:37:41;100744.38;;;30.63;23.69
45040;BME280;30778;53.574;7.770;2022-08-16T12:40:11;100740.41;;;31.00;24.05
45040;BME280;30778;53.574;7.770;2022-08-16T12:42:37;100747.09;;;29.91;24.44
45040;BME280;30778;53.574;7.770;2022-08-16T12:45:05;100746.75;;;29.80;24.63
45040;BME280;30778;53.574;7.770;2022-08-16T12:47:32;100740.84;;;29.69;24.84
45040;BME280;30778;53.574;7.770;2022-08-16T12:50:16;100730.09;;;30.41;24.37
45040;BME280;30778;53.574;7.770;2022-08-16T12:52:42;100743.00;;;31.08;23.64